Haydenville, Ohio
Current Conditions -  °F | °C
As of 2:15 AM on Friday 31 Oct 2014 (Local Time) from KUNI Reporting Station
Overcast Overcast  
Wind Chill: 36°   Ceiling: 4700
Heat Index: 36°   Visibility: 10mi
Dew Point: 34°   Wind: 0mph
Humidity: 92%   Direction: NA
Pressure: 30.03"   Gusts: NA
Location:  39.48°N, 82.33°W
Report Text: KUNI 310615Z AUTO 00000KT 10SM OVC047 02/01 A3003 RMK AO2 T00210009
Loading
Personal Weather Stations






























Interactive Weather Map
Tropical Storm Tracking
New forecast layout! Learn more

10-Day Weather Forecast

Advertisements
Track Severe Weather on mobile